Tiempo atmosférico en la estación meteorológica de Mosqueruela, Teruel (1505 m.)



Fecha
DESCASC
Temp. máxima en grados centígrados (hora)
DESCASC
Temp. mínima en grados centígrados (hora)
DESCASC
Temp. media en grados centígrados
DESCASC
Racha de viento máxima en m/sg (hora)
DESCASC
Velocidad máxima media en intervalos de 10 minutos(hora)
DESCASC
Precipitaciones diarias en mm
DESCASC
Precipitaciones de 00:00 a 06:00 en mm
DESCASC
Precipitaciones de 06:00 a 12:00 en mm
DESCASC
Precipitaciones de 12:00 a 18:00 en mm
DESCASC
Precipitaciones de 18:00 a 24:00 en mm
DESCASC
11-12-2019 9.8 (11:00) -0.4 (23:59) 4.7 23.61 (18:50) 16.39 (19:30) 0 0 0 0 0
08-12-2019 11.3 (13:20) 4.6 (00:00) 8 20.28 (20:20) 14.72 (20:20) 0 0 0 0 0
07-12-2019 10.3 (13:20) 0.8 (00:00) 5.6 10.28 (23:30) 8.89 (23:40) 0 0 0 0 0
06-12-2019 8.3 (16:10) 1 (00:00) 4.7 5.83 (01:40) 3.89 (18:20) 3 1.4 1.4 0.2 0
05-12-2019 4.9 (15:20) 1.1 (00:00) 3 10.28 (01:00) 6.11 (01:00) 5.2 2.2 0.2 0.2 2.6
04-12-2019 1.7 (20:10) 0.2 (07:40) 1 13.61 (18:40) 8.89 (19:00) 39.4 13.8 17.8 4.4 3.4
03-12-2019 2.6 (13:30) -0.5 (-00:0) 1 8.33 (23:10) 5 (22:10) 6 0 0 0.2 5.8
02-12-2019 4.5 (14:40) -0.6 (-00:0) 1.9 7.22 (13:40) 4.72 (04:00) 0.4 0 0.4 0 0
01-12-2019 9 (12:50) 1.1 (00:00) 5.1 14.44 (06:00) 9.17 (06:10) 0 0 0 0 0
30-11-2019 15.2 (13:30) 3.6 (00:00) 9.4 13.89 (21:40) 9.17 (23:20) 0 0 0 0 0
29-11-2019 11.3 (14:40) 5.5 (00:00) 8.4 17.5 (12:40) 12.78 (12:40) 0 0 0 0 0
28-11-2019 10.9 (14:10) 4.1 (03:20) 7.5 19.17 (07:00) 11.39 (07:00) 0 0 0 0 0
27-11-2019 11.1 (15:10) 4 (00:00) 7.6 16.39 (02:20) 8.33 (00:10) 0 0 0 0 0
26-11-2019 17.2 (13:50) 2.7 (00:00) 10 17.78 (23:30) 11.11 (21:40) 0 0 0 0 0
25-11-2019 8.8 (14:10) 4.3 (21:10) 6.6 20 (17:00) 13.89 (15:40) 0 0 0 0 0
24-11-2019 5 (23:40) 0.1 (00:00) 2.6 25.56 (00:10) 16.39 (00:10) 0 0 0 0 0
23-11-2019 4.9 (00:00) 0.8 (00:00) 2.9 27.78 (23:20) 19.17 (23:30) 0.8 0 0.8 0 0
22-11-2019 5.7 (21:40) -0.3 (00:00) 2.7 16.39 (21:30) 9.72 (21:20) 6 0 0 4.4 1.6
21-11-2019 6.7 (13:00) -0.6 (-00:0) 3 11.39 (04:30) 8.33 (10:30) 0 0 0 0 0
20-11-2019 6.3 (15:20) -2.3 (01:50) 2 7.5 (15:30) 4.72 (15:40) 0 0 0 0 0
19-11-2019 4.4 (16:30) -2.5 (-00:0) 1 20.28 (01:30) 15 (01:30) 0 0 0 0 0
18-11-2019 1.7 (15:00) -2.4 (-00:0) -0.4 20.28 (11:20) 15.28 (11:30) 0.2 0.2 0 0 0
17-11-2019 6.5 (14:00) -2.1 (-00:0) 2.2 19.17 (00:10) 12.78 (00:10) 0.8 0 0 0.6 0.2
16-11-2019 3.1 (14:30) -3.1 (-00:0) 0 20 (22:00) 14.44 (22:00) 0 0 0 0 0
15-11-2019 2.4 (14:40) -3.5 (-00:0) -0.5 18.61 (04:00) 12.78 (04:00) 0.2 0.2 0 0 0

Gráficas

Temp. máximas Temp. mínimas Temp. medias Precipitaciones Rachas de viento máximas Velocidades máximas media en intervalos de 10 minutos

Datos horarios

Fecha y hora oficial Temperatura (ºC) Velocidad del viento (km/h) Dirección del viento Racha (km/h) Dirección de racha Precipitación (mm) Presión (hPa) Tendencia (hPa) Humedad (%)
2019-12-14 23:00:00 3.1 6 Sudoeste 11 Sudoeste 0 -- -- 41
2019-12-14 22:00:00 4.5 3 Oeste 12 Oeste 0 -- -- 34
2019-12-14 21:00:00 4 2 Sudoeste 12 Sudoeste 0 -- -- 44
2019-12-14 20:00:00 4.5 3 Sudoeste 8 Sudoeste 0 -- -- 54
2019-12-14 19:00:00 5.1 4 Oeste 13 Sudoeste 0 -- -- 52
2019-12-14 18:00:00 6 7 Sudoeste 19 Sudoeste 0 -- -- 58
2019-12-14 17:00:00 7.8 2 Sudoeste 9 Este 0 -- -- 68
2019-12-14 16:00:00 10.9 4 Este 12 Este 0 -- -- 58
2019-12-14 15:00:00 13.6 4 Este 13 Sudeste 0 -- -- 47
2019-12-14 14:00:00 13.4 4 Este 11 Nordeste 0 -- -- 41
2019-12-14 13:00:00 12.2 5 Sudeste 14 Este 0 -- -- 47
2019-12-14 12:00:00 11.7 13 Oeste 19 Norte 0 -- -- 38
2019-12-14 11:00:00 9.6 13 Norte 23 Oeste 0 -- -- 58
2019-12-14 10:00:00 9.9 8 Oeste 39 Oeste 0 -- -- 35
2019-12-14 09:00:00 8.6 30 Oeste 54 Oeste 0 -- -- 39
2019-12-14 08:00:00 6.7 41 Oeste 68 Oeste 0 -- -- 48
2019-12-14 07:00:00 5.4 41 Oeste 71 Oeste 0 -- -- 63
2019-12-14 06:00:00 4.9 50 Oeste 67 Oeste 0 -- -- 73
2019-12-14 05:00:00 5.2 41 Oeste 65 Oeste 0 -- -- 72
2019-12-14 04:00:00 5.5 46 Oeste 72 Oeste 0 -- -- 71
2019-12-14 03:00:00 5.8 44 Oeste 74 Oeste 0 -- -- 71
2019-12-14 02:00:00 5.3 44 Oeste 80 Oeste 0 -- -- 76
2019-12-14 01:00:00 5.6 53 Oeste 81 Oeste 0 -- -- 76
2019-12-14 00:00:00 5.8 53 Oeste 90 Oeste 0 -- -- 78
2019-12-13 23:00:00 6.3 57 Oeste 88 Oeste 0 -- -- 79
2019-12-13 22:00:00 6.8 48 Oeste 86 Oeste 0 -- -- 82
2019-12-13 21:00:00 7 50 Oeste 90 Oeste 0 -- -- 84
2019-12-13 20:00:00 7.2 49 Oeste 95 Oeste 0 -- -- 86
2019-12-13 19:00:00 7.7 51 Oeste 87 Oeste 0 -- -- 81
2019-12-13 18:00:00 8 45 Oeste 96 Noroeste 0 -- -- 81
2019-12-13 17:00:00 7.9 50 Oeste 100 Oeste 0 -- -- 80
2019-12-13 16:00:00 8.4 62 Oeste 100 Oeste 0 -- -- 78
2019-12-13 15:00:00 8 58 Oeste 104 Oeste 0 -- -- 80
2019-12-13 14:00:00 8.2 58 Oeste 96 Noroeste 0 -- -- 78
2019-12-13 13:00:00 7.6 64 Oeste 107 Oeste 0 -- -- 80
2019-12-13 12:00:00 7.6 55 Oeste 101 Oeste 0 -- -- 80
2019-12-13 11:00:00 7.5 57 Oeste 93 Oeste 0 -- -- 79
2019-12-13 10:00:00 7.5 46 Oeste 95 Oeste 0 -- -- 77
2019-12-13 09:00:00 7.2 47 Oeste 99 Oeste 0 -- -- 78
2019-12-13 08:00:00 7.5 45 Oeste 87 Oeste 0 -- -- 80
2019-12-13 07:00:00 7.7 46 Oeste 89 Oeste 0 -- -- 81
2019-12-13 06:00:00 7.3 40 Oeste 74 Oeste 0 -- -- 86
2019-12-13 05:00:00 7.2 42 Oeste 91 Oeste 0 -- -- 86
2019-12-13 04:00:00 6.9 46 Oeste 85 Oeste 0 -- -- 86
2019-12-13 03:00:00 6.3 40 Oeste 76 Oeste 0 -- -- 87
2019-12-13 02:00:00 5.8 40 Oeste 76 Oeste 0.2 -- -- 89
2019-12-13 01:00:00 5.2 42 Oeste 84 Oeste 0.2 -- -- 89
2019-12-13 00:00:00 4.9 46 Oeste 82 Oeste 0 -- -- 88
2019-12-12 23:00:00 4.2 42 Oeste 80 Oeste 0 -- -- 88
2019-12-12 22:00:00 3.3 41 Oeste 73 Oeste 0 -- -- 90
2019-12-12 21:00:00 2.2 39 Oeste 68 Sudoeste 0.8 -- -- 93
2019-12-12 20:00:00 1.6 37 Oeste 68 Oeste 0.8 -- -- 93
2019-12-12 19:00:00 1.4 37 Oeste 62 Oeste 0.2 -- -- 91
2019-12-12 18:00:00 0.9 30 Oeste 58 Oeste 0.4 -- -- 93
2019-12-12 17:00:00 0.9 33 Oeste 65 Oeste 0.2 -- -- 90
2019-12-12 16:00:00 1.3 27 Oeste 57 Sudoeste 0.2 -- -- 88
2019-12-12 15:00:00 2.5 40 Oeste 66 Oeste 0 -- -- 80
2019-12-12 14:00:00 3.9 36 Sudoeste 59 Oeste 0 -- -- 69
2019-12-12 13:00:00 4 25 Oeste 55 Sudoeste 0 -- -- 65
2019-12-12 12:00:00 3.7 30 Oeste 62 Oeste 0 -- -- 69
2019-12-12 11:00:00 2.5 27 Oeste 68 Oeste 0 -- -- 72
2019-12-12 10:00:00 1.3 38 Oeste 71 Oeste 0 -- -- 76
2019-12-12 09:00:00 0.3 46 Oeste 78 Oeste 0 -- -- 81
2019-12-12 08:00:00 0.4 35 Oeste 70 Oeste 0 -- -- 80
2019-12-12 07:00:00 0 39 Oeste 64 Oeste 0 -- -- 82
2019-12-12 06:00:00 0 37 Oeste 62 Oeste 0 -- -- 81
2019-12-12 05:00:00 0 35 Oeste 70 Oeste 0 -- -- 81
2019-12-12 04:00:00 -0.6 42 Oeste 77 Oeste 0 -- -- 85
2019-12-12 03:00:00 0 40 Oeste 68 Noroeste 0 -- -- 80
2019-12-12 02:00:00 -0.4 37 Oeste 75 Oeste 0 -- -- 82
2019-12-12 01:00:00 0 41 Oeste 76 Oeste 0 -- -- 79
2019-12-12 00:00:00 -0.4 33 Oeste 68 Oeste 0 -- -- 82
2019-12-11 23:00:00 -0.2 36 Oeste 67 Oeste 0 -- -- 76
2019-12-11 22:00:00 0.1 41 Oeste 68 Noroeste 0 -- -- 76
2019-12-11 21:00:00 0.4 40 Noroeste 85 Oeste 0 -- -- 75
2019-12-11 20:00:00 0.6 58 Oeste 83 Noroeste 0 -- -- 73
2019-12-11 19:00:00 0.9 58 Oeste 85 Oeste 0 -- -- 80
2019-12-11 18:00:00 1.4 54 Oeste 78 Oeste 0 -- -- 80
2019-12-11 17:00:00 1.4 46 Oeste 69 Oeste 0 -- -- 84
2019-12-11 16:00:00 2.2 36 Noroeste 66 Oeste 0 -- -- 87
2019-12-11 15:00:00 4.3 36 Oeste 76 Noroeste 0 -- -- 84
2019-12-11 14:00:00 5.5 25 Oeste 49 Oeste 0 -- -- 77
2019-12-11 13:00:00 6.7 28 Oeste 54 Oeste 0 -- -- 62
2019-12-11 12:00:00 7.1 24 Oeste 47 Noroeste 0 -- -- 59
2019-12-11 11:00:00 9.8 24 Oeste 42 Oeste 0 -- -- 42
2019-12-11 10:00:00 8.7 14 Oeste 27 Oeste 0 -- -- 38
2019-12-11 09:00:00 7 3 Oeste 14 Oeste 0 -- -- 62
2019-12-11 08:00:00 4.7 3 Oeste 14 Oeste 0 -- -- 50
2019-12-11 07:00:00 5.6 6 Oeste 19 Oeste 0 -- -- 66
2019-12-11 06:00:00 4.5 8 Sur 14 Sudoeste 0 -- -- 53
2019-12-11 05:00:00 6 8 Sudeste 22 Oeste 0 -- -- 35
2019-12-11 04:00:00 5.6 4 Nordeste 23 Oeste 0 -- -- 35
2019-12-11 03:00:00 6.7 18 Oeste 38 Oeste 0 -- -- 29
2019-12-11 02:00:00 6.6 26 Oeste 33 Oeste 0 -- -- 28
2019-12-11 01:00:00 6.3 24 Oeste 31 Oeste 0 -- -- 28
2019-12-11 00:00:00 6 25 Oeste 33 Oeste 0 -- -- 30
2019-12-10 23:00:00 5.9 21 Oeste 34 Oeste 0 -- -- 32
2019-12-10 22:00:00 5.7 23 Oeste 31 Oeste 0 -- -- 34
2019-12-10 21:00:00 7.1 26 Oeste 32 Oeste 0 -- -- 32
2019-12-10 20:00:00 6.9 22 Oeste 38 Oeste 0 -- -- 33
2019-12-10 19:00:00 7.5 24 Oeste 39 Noroeste 0 -- -- 32
2019-12-10 18:00:00 7.4 29 Oeste 41 Oeste 0 -- -- 35
2019-12-10 17:00:00 7.8 26 Oeste 37 Oeste 0 -- -- 39
2019-12-10 16:00:00 9.8 28 Oeste 41 Oeste 0 -- -- 34
2019-12-10 15:00:00 10.3 24 Noroeste 44 Oeste 0 -- -- 34
2019-12-10 14:00:00 11.1 26 Noroeste 47 Oeste 0 -- -- 32
2019-12-10 13:00:00 9.5 31 Oeste 47 Oeste 0 -- -- 33
2019-12-10 12:00:00 8.1 22 Noroeste 37 Oeste 0 -- -- 36
2019-12-10 11:00:00 7.9 30 Oeste 57 Oeste 0 -- -- 35
2019-12-10 10:00:00 7.8 38 Oeste 69 Oeste 0 -- -- 33
2019-12-10 09:00:00 7.7 48 Oeste 76 Oeste 0 -- -- 33
2019-12-10 08:00:00 6.7 55 Oeste 76 Oeste 0 -- -- 32
2019-12-10 07:00:00 5.1 43 Oeste 62 Noroeste 0 -- -- 35
2019-12-10 06:00:00 4.3 33 Noroeste 57 Oeste 0 -- -- 34
2019-12-10 05:00:00 5.2 41 Oeste 77 Oeste 0 -- -- 28
2019-12-10 04:00:00 3.5 51 Oeste 75 Oeste 0 -- -- 39
2019-12-10 03:00:00 3.3 55 Oeste 84 Oeste 0 -- -- 48
2019-12-10 02:00:00 3.8 53 Oeste 77 Oeste 0 -- -- 38
2019-12-10 01:00:00 2.1 53 Oeste 80 Oeste 0 -- -- 58
2019-12-10 00:00:00 1.7 50 Noroeste 69 Oeste 0 -- -- 67
2019-12-09 23:00:00 1.4 40 Noroeste 62 Noroeste 0 -- -- 73
2019-12-09 22:00:00 1.5 32 Noroeste 58 Oeste 0 -- -- 77
2019-12-09 21:00:00 1.6 33 Noroeste 58 Noroeste 0 -- -- 82
2019-12-09 20:00:00 2.1 32 Noroeste 65 Noroeste 0 -- -- 82
2019-12-09 19:00:00 2.7 28 Noroeste 68 Noroeste 0 -- -- 78
2019-12-09 18:00:00 3.2 34 Noroeste 66 Oeste 0 -- -- 76
2019-12-09 17:00:00 3.7 41 Noroeste 72 Oeste 0 -- -- 71
2019-12-09 16:00:00 4.8 47 Oeste 77 Noroeste 0 -- -- 63
2019-12-09 15:00:00 4.8 50 Oeste 88 Oeste 0 -- -- 62
2019-12-09 14:00:00 5.6 44 Noroeste 78 Oeste 0 -- -- 56
2019-12-09 13:00:00 5.3 46 Oeste 78 Oeste 0 -- -- 55
2019-12-09 12:00:00 5.8 46 Oeste 75 Oeste 0 -- -- 49
2019-12-09 11:00:00 5.4 43 Oeste 70 Oeste 0 -- -- 48
2019-12-09 10:00:00 6.4 38 Oeste 73 Oeste 0 -- -- 38
2019-12-09 09:00:00 6.3 36 Oeste 67 Oeste 0 -- -- 34
2019-12-09 08:00:00 6 39 Oeste 64 Oeste 0 -- -- 29
2019-12-09 07:00:00 5.2 37 Oeste 62 Oeste 0 -- -- 34
2019-12-09 06:00:00 4.9 37 Oeste 53 Oeste 0 -- -- 35
2019-12-09 05:00:00 5.1 32 Oeste 54 Oeste 0 -- -- 37
2019-12-09 04:00:00 2.2 10 Norte 32 Noroeste 0 -- -- 71
2019-12-09 03:00:00 3.8 24 Noroeste 38 Noroeste 0 -- -- 65
2019-12-09 02:00:00 4.3 13 Noroeste 41 Oeste 0 -- -- 61
2019-12-09 01:00:00 4.7 29 Oeste 60 Oeste 0 -- -- 70
2019-12-09 00:00:00 5.4 49 Oeste 68 Oeste 0 -- -- 82
2019-12-08 23:00:00 5.8 25 Noroeste 54 Oeste 0 -- -- 93
2019-12-08 22:00:00 6.2 39 Oeste 56 Noroeste 0 -- -- 94
2019-12-08 21:00:00 6.3 21 Noroeste 73 Oeste 0 -- -- 93
2019-12-08 20:00:00 6.6 25 Noroeste 54 Noroeste 0 -- -- 91
2019-12-08 19:00:00 6.6 25 Noroeste 44 Oeste 0 -- -- 89
2019-12-08 18:00:00 6.2 25 Oeste 43 Oeste 0 -- -- 84
2019-12-08 17:00:00 6.7 23 Oeste 40 Oeste 0 -- -- 74
2019-12-08 16:00:00 8.1 22 Oeste 35 Oeste 0 -- -- 71
2019-12-08 15:00:00 10.3 16 Oeste 29 Oeste 0 -- -- 60
2019-12-08 14:00:00 10.4 17 Oeste 30 Oeste 0 -- -- 50
2019-12-08 13:00:00 11.1 8 Oeste 23 Noroeste 0 -- -- 52
2019-12-08 12:00:00 10.8 5 Oeste 18 Sudeste 0 -- -- 52
2019-12-08 11:00:00 9.6 6 Este 21 Oeste 0 -- -- 62
2019-12-08 10:00:00 8.2 16 Oeste 39 Oeste 0 -- -- 64
2019-12-08 09:00:00 6.9 23 Oeste 37 Oeste 0 -- -- 70
2019-12-08 08:00:00 5.6 23 Oeste 36 Oeste 0 -- -- 75
2019-12-08 07:00:00 5.5 19 Oeste 32 Oeste 0 -- -- 74
2019-12-08 06:00:00 5.4 21 Oeste 27 Oeste 0 -- -- 76
2019-12-08 05:00:00 5 19 Oeste 29 Oeste 0 -- -- 73
2019-12-08 04:00:00 5.6 23 Oeste 30 Oeste 0 -- -- 77
2019-12-08 03:00:00 5.5 23 Oeste 29 Oeste 0 -- -- 82
2019-12-08 02:00:00 5.5 23 Oeste 31 Oeste 0 -- -- 80
2019-12-08 01:00:00 5.6 27 Oeste 34 Oeste 0 -- -- 70
2019-12-08 00:00:00 5.8 29 Oeste 37 Oeste 0 -- -- 60
2019-12-07 23:00:00 6 28 Oeste 34 Oeste 0 -- -- 50
2019-12-07 22:00:00 5.3 21 Oeste 30 Oeste 0 -- -- 64
2019-12-07 21:00:00 4.9 21 Oeste 27 Oeste 0 -- -- 69
2019-12-07 20:00:00 2.9 9 Oeste 14 Oeste 0 -- -- 81
2019-12-07 19:00:00 2.6 5 Sudoeste 8 Sudoeste 0 -- -- 85
2019-12-07 18:00:00 3.9 5 Sudoeste 10 Oeste 0 -- -- 78
2019-12-07 17:00:00 6.4 8 Noroeste 13 Noroeste 0 -- -- 69
2019-12-07 16:00:00 9.1 3 Sur 9 Sudeste 0 -- -- 67
2019-12-07 15:00:00 9.9 2 Sur 9 Este 0 -- -- 65
2019-12-07 14:00:00 9.3 3 Norte 14 Nordeste 0 -- -- 63
2019-12-07 13:00:00 10.2 4 Sudeste 15 Nordeste 0 -- -- 60
2019-12-07 12:00:00 9.4 5 Este 18 Noroeste 0 -- -- 59
2019-12-07 11:00:00 7.9 12 Oeste 18 Noroeste 0 -- -- 61
2019-12-07 10:00:00 6 3 Oeste 15 Oeste 0 -- -- 69
2019-12-07 09:00:00 3.1 2 Norte 8 Oeste 0 -- -- 81
2019-12-07 08:00:00 1.1 4 Nordeste 13 Sudoeste 0 -- -- 85
2019-12-07 07:00:00 1.8 7 Oeste 18 Sudoeste 0 -- -- 84
2019-12-07 06:00:00 1.1 0 Calma 11 Oeste 0 -- -- 88
2019-12-07 05:00:00 1.3 5 Sudoeste 9 Sur 0 -- -- 89
2019-12-07 04:00:00 1.4 2 Norte 10 Noroeste 0 -- -- 91
2019-12-07 03:00:00 2.1 2 Sudoeste 16 Oeste 0 -- -- 90
2019-12-07 02:00:00 2 10 Oeste 17 Oeste 0 -- -- 87
2019-12-07 01:00:00 1.7 9 Sudoeste 12 Sudoeste 0 -- -- 87
2019-12-07 00:00:00 1.2 8 Sudoeste 13 Sudoeste 0 -- -- 88
2019-12-06 23:00:00 1.3 7 Oeste 13 Oeste 0 -- -- 92
2019-12-06 22:00:00 1.7 2 Sudoeste 14 Noroeste 0 -- -- 90
2019-12-06 21:00:00 1.8 8 Sudoeste 13 Sudoeste 0 -- -- 92
2019-12-06 20:00:00 1.9 11 Sudoeste 13 Sudoeste 0 -- -- 93
2019-12-06 19:00:00 2.3 11 Sudoeste 17 Oeste 0 -- -- 92
2019-12-06 18:00:00 3.2 13 Oeste 15 Oeste 0 -- -- 90
2019-12-06 17:00:00 6.1 6 Sudoeste 15 Sudoeste 0 -- -- 87
2019-12-06 16:00:00 8.1 3 Sur 12 Sudoeste 0 -- -- 77
2019-12-06 15:00:00 6.4 9 Sudoeste 17 Sur 0 -- -- 81
2019-12-06 14:00:00 6.2 12 Sur 18 Sur 0.2 -- -- 89
2019-12-06 13:00:00 6.5 9 Sudeste 15 Sudeste 0 -- -- 87
2019-12-06 12:00:00 5.6 3 Sudeste 11 Sudeste 0 -- -- 90
2019-12-06 11:00:00 4.3 0 Calma 8 Sudeste 0 -- -- 100
2019-12-06 10:00:00 3.7 3 Sudeste 5 Sudeste 0.4 -- -- 100
2019-12-06 09:00:00 3.3 0 Calma 5 Este 0.4 -- -- 100
2019-12-06 08:00:00 3.2 2 Sudeste 11 Este 0.4 -- -- 100
2019-12-06 07:00:00 3.1 5 Norte 10 Norte 0.2 -- -- 100
2019-12-06 06:00:00 3.1 4 Norte 9 Nordeste 0.2 -- -- 100
2019-12-06 05:00:00 3.1 3 Norte 9 Norte 0 -- -- 100
2019-12-06 04:00:00 3 5 Norte 10 Norte 0.2 -- -- 100
2019-12-06 03:00:00 2.9 4 Norte 15 Noroeste 0.2 -- -- 100
2019-12-06 02:00:00 2.9 5 Norte 21 Nordeste 0.2 -- -- 100
2019-12-06 01:00:00 2.8 8 Norte 14 Norte 0.6 -- -- 100
2019-12-06 00:00:00 2.9 7 Norte 20 Noroeste 0.8 -- -- 99
2019-12-05 23:00:00 2.7 13 Noroeste 22 Noroeste 0.4 -- -- 98
2019-12-05 22:00:00 2.4 14 Noroeste 28 Noroeste 0.8 -- -- 98
2019-12-05 21:00:00 2.4 14 Norte 30 Norte 0.4 -- -- 99
2019-12-05 20:00:00 2.6 15 Noroeste 25 Noroeste 0.2 -- -- 98
2019-12-05 19:00:00 2.6 17 Noroeste 27 Noroeste 0 -- -- 98
2019-12-05 18:00:00 2.6 15 Noroeste 23 Noroeste 0.2 -- -- 99
2019-12-05 17:00:00 2.8 15 Noroeste 23 Norte 0 -- -- 98
2019-12-05 16:00:00 3.4 14 Noroeste 24 Noroeste 0 -- -- 97
2019-12-05 15:00:00 4.1 14 Noroeste 22 Noroeste 0 -- -- 96
2019-12-05 14:00:00 3.9 12 Noroeste 23 Noroeste 0 -- -- 95
2019-12-05 13:00:00 3.7 15 Noroeste 24 Norte 0 -- -- 97
2019-12-05 12:00:00 3.1 14 Noroeste 26 Norte 0 -- -- 98
2019-12-05 11:00:00 2.7 13 Norte 20 Noroeste 0.2 -- -- 99
2019-12-05 10:00:00 2.3 12 Noroeste 25 Noroeste 0 -- -- 100
2019-12-05 09:00:00 2 16 Noroeste 28 Noroeste 0 -- -- 100
2019-12-05 08:00:00 1.8 15 Noroeste 31 Noroeste 0 -- -- 100
2019-12-05 07:00:00 1.7 20 Noroeste 31 Norte 0 -- -- 100
2019-12-05 06:00:00 1.6 18 Noroeste 28 Norte 1 -- -- 100
2019-12-05 05:00:00 1.6 19 Norte 29 Norte 0.4 -- -- 100
2019-12-05 04:00:00 1.7 14 Norte 26 Norte 0.4 -- -- 100
2019-12-05 03:00:00 1.9 13 Norte 27 Norte 0.2 -- -- 100
2019-12-05 02:00:00 1.9 17 Noroeste 35 Norte 0 -- -- 100
2019-12-05 01:00:00 1.8 22 Norte 37 Norte 0.2 -- -- 100
2019-12-05 00:00:00 1.1 17 Noroeste 29 Noroeste 0.6 -- -- 98
2019-12-04 23:00:00 1.3 18 Noroeste 34 Norte 0.8 -- -- 99
2019-12-04 22:00:00 1.4 22 Noroeste 40 Norte 1 -- -- 99
2019-12-04 21:00:00 1.3 20 Norte 41 Noroeste 0.4 -- -- 99
2019-12-04 20:00:00 1.6 27 Noroeste 48 Norte 0.2 -- -- 99
2019-12-04 19:00:00 1.6 32 Noroeste 49 Noroeste 0.4 -- -- 99
2019-12-04 18:00:00 1.1 23 Oeste 43 Noroeste 2.2 -- -- 97
2019-12-04 17:00:00 1 15 Noroeste 31 Noroeste 0.8 -- -- 97
2019-12-04 16:00:00 1.1 19 Noroeste 29 Noroeste 0.8 -- -- 97
2019-12-04 15:00:00 1.3 19 Noroeste 39 Noroeste 0 -- -- 98
2019-12-04 14:00:00 1.2 24 Noroeste 45 Noroeste 0 -- -- 98
2019-12-04 13:00:00 1.3 29 Noroeste 45 Noroeste 0.6 -- -- 96
2019-12-04 12:00:00 0.8 0 Calma 0 Calma 2.6 -- -- 98
2019-12-04 11:00:00 0.4 0 Calma -- -- 2.8 -- -- 99
2019-12-04 10:00:00 0.3 0 Calma 15 Norte 4.2 -- -- 99
2019-12-04 09:00:00 0.6 11 Norte 46 Norte 4.2 -- -- 98
2019-12-04 08:00:00 0.2 16 Noroeste 36 Norte 2.4 -- -- 100
2019-12-04 07:00:00 0.4 21 Norte 41 Norte 1.6 -- -- 99
2019-12-04 06:00:00 0.8 26 Norte 38 Noroeste 1.8 -- -- 99
2019-12-04 05:00:00 0.9 24 Norte 36 Norte 2.6 -- -- 100
2019-12-04 04:00:00 0.6 19 Norte 37 Norte 3.4 -- -- 100
2019-12-04 03:00:00 0.5 18 Norte 33 Norte 2.4 -- -- 100
2019-12-04 02:00:00 0.8 19 Norte 30 Noroeste 1.8 -- -- 100
2019-12-04 01:00:00 1.3 21 Norte 30 Norte 1.8 -- -- 100
2019-12-04 00:00:00 0.9 13 Norte 30 Nordeste 1 -- -- 100
2019-12-03 23:00:00 1 13 Norte 27 Norte 0.8 -- -- 100
2019-12-03 22:00:00 0.6 17 Norte 27 Norte 1.2 -- -- 100
2019-12-03 21:00:00 0.2 10 Norte 21 Norte 2 -- -- 99
2019-12-03 20:00:00 0.1 9 Norte 21 Noroeste 0.6 -- -- 99
2019-12-03 19:00:00 0.1 8 Norte 15 Noroeste 0.2 -- -- 94
2019-12-03 18:00:00 0.4 10 Noroeste 21 Norte 0.2 -- -- 94
2019-12-03 17:00:00 1.2 15 Norte 24 Norte 0 -- -- 88
2019-12-03 16:00:00 2 16 Norte 22 Noroeste 0 -- -- 83
2019-12-03 15:00:00 1.5 15 Norte 19 Norte 0 -- -- 87
2019-12-03 14:00:00 -- -- -- -- -- -- -- -- --
2019-12-03 13:00:00 2 5 Este 14 Nordeste 0 -- -- 86
2019-12-03 12:00:00 2.1 7 Nordeste 14 Nordeste 0 -- -- 87
2019-12-03 11:00:00 2.3 7 Nordeste 14 Nordeste 0 -- -- 88
2019-12-03 10:00:00 0.8 5 Norte 9 Norte 0 -- -- 94
2019-12-03 09:00:00 0.5 0 Calma 8 Nordeste 0 -- -- 95
2019-12-03 08:00:00 0.3 2 Noroeste 9 Norte 0 -- -- 97
2019-12-03 07:00:00 0.1 5 Norte 9 Nordeste 0 -- -- 97
2019-12-03 06:00:00 0 0 Calma 13 Oeste 0 -- -- 97
2019-12-03 05:00:00 0.1 12 Noroeste 17 Oeste 0 -- -- 96
2019-12-03 04:00:00 -0.4 5 Norte 10 Norte 0 -- -- 98
2019-12-03 03:00:00 0.1 3 Oeste 9 Oeste 0 -- -- 94
2019-12-03 02:00:00 0.2 6 Oeste 16 Noroeste 0 -- -- 97
2019-12-03 01:00:00 1 4 Norte 15 Noroeste 0 -- -- 97
2019-12-03 00:00:00 1.2 8 Noroeste 19 Noroeste 0 -- -- 98
2019-12-02 23:00:00 1.2 8 Noroeste 17 Norte 0 -- -- 99
2019-12-02 22:00:00 1.6 8 Noroeste 13 Noroeste 0 -- -- 98
2019-12-02 21:00:00 1.7 7 Norte 26 Noroeste 0 -- -- 98
2019-12-02 20:00:00 1.9 12 Noroeste 24 Noroeste 0 -- -- 96
2019-12-02 19:00:00 2.1 10 Noroeste 19 Noroeste 0 -- -- 92
2019-12-02 18:00:00 2.3 6 Noroeste 16 Noroeste 0 -- -- 89
2019-12-02 17:00:00 2.9 8 Norte 18 Norte 0 -- -- 86
2019-12-02 16:00:00 3.1 11 Norte 20 Nordeste 0 -- -- 87
2019-12-02 15:00:00 3.8 12 Nordeste 20 Nordeste 0 -- -- 80
2019-12-02 14:00:00 3.2 14 Nordeste 26 Nordeste 0 -- -- 82
2019-12-02 13:00:00 3.3 10 Norte 18 Nordeste 0 -- -- 88
2019-12-02 12:00:00 1.3 10 Norte 23 Norte 0 -- -- 98
2019-12-02 11:00:00 1.2 13 Norte 22 Noroeste 0.4 -- -- 97
2019-12-02 10:00:00 0.8 9 Noroeste 23 Noroeste 0 -- -- 95
2019-12-02 09:00:00 0.7 14 Noroeste 23 Noroeste 0 -- -- 92
2019-12-02 08:00:00 0.6 12 Noroeste 22 Noroeste 0 -- -- 91
2019-12-02 07:00:00 -0.2 13 Noroeste 21 Noroeste 0 -- -- 93
2019-12-02 06:00:00 -0.6 14 Noroeste 23 Noroeste 0 -- -- 95
2019-12-02 05:00:00 0.1 12 Noroeste 22 Noroeste 0 -- -- 88
2019-12-02 04:00:00 0.4 17 Noroeste 24 Noroeste 0 -- -- 87
2019-12-02 03:00:00 0.7 11 Noroeste 18 Noroeste 0 -- -- 87
2019-12-02 02:00:00 1.2 12 Noroeste 22 Noroeste 0 -- -- 86
2019-12-02 01:00:00 1.5 10 Noroeste 20 Noroeste 0 -- -- 86
2019-12-02 00:00:00 1.4 16 Noroeste 22 Noroeste 0 -- -- 90
2019-12-01 23:00:00 1.3 10 Noroeste 18 Noroeste 0 -- -- 90
2019-12-01 22:00:00 1.9 4 Noroeste 12 Oeste 0 -- -- 88
2019-12-01 21:00:00 2.5 3 Norte 9 Nordeste 0 -- -- 88
2019-12-01 20:00:00 2.9 8 Norte 12 Noroeste 0 -- -- 87
2019-12-01 19:00:00 3.6 5 Norte 14 Nordeste 0 -- -- 86
2019-12-01 18:00:00 4.1 5 Este 15 Este 0 -- -- 91
2019-12-01 17:00:00 5.1 6 Nordeste 12 Nordeste 0 -- -- 81
2019-12-01 16:00:00 5.8 8 Norte 17 Norte 0 -- -- 78
2019-12-01 15:00:00 6.2 7 Norte 18 Norte 0 -- -- 76
2019-12-01 14:00:00 7.2 12 Este 19 Nordeste 0 -- -- 71
2019-12-01 13:00:00 8.2 13 Este 23 Este 0 -- -- 62
2019-12-01 12:00:00 8.2 5 Este 15 Este 0 -- -- 59
2019-12-01 11:00:00 7.1 5 Sur 15 Sur 0 -- -- 60
2019-12-01 10:00:00 5.4 9 Sudoeste 19 Sur 0 -- -- 69
2019-12-01 09:00:00 4.3 10 Sur 17 Sudoeste 0 -- -- 78
2019-12-01 08:00:00 2.4 4 Sudoeste 20 Sur 0 -- -- 89
2019-12-01 07:00:00 3.8 11 Sur 48 Sudoeste 0 -- -- 81
2019-12-01 06:00:00 4.5 32 Sudoeste 52 Sudoeste 0 -- -- 82
2019-12-01 05:00:00 3.9 7 Sur 17 Sur 0 -- -- 89
2019-12-01 04:00:00 4.1 6 Sudoeste 14 Sudoeste 0 -- -- 92
2019-12-01 03:00:00 2.7 9 Sudoeste 19 Oeste 0 -- -- 93
2019-12-01 02:00:00 3.5 13 Oeste 28 Oeste 0 -- -- 90
2019-12-01 01:00:00 6.1 16 Oeste 40 Sudoeste 0 -- -- 86
2019-12-01 00:00:00 6.3 24 Sudoeste 50 Oeste 0 -- -- 89
2019-11-30 23:00:00 7.1 30 Oeste 48 Oeste 0 -- -- 82
2019-11-30 22:00:00 7.3 29 Oeste 50 Sudoeste 0 -- -- 81
2019-11-30 21:00:00 6.7 28 Oeste 45 Oeste 0 -- -- 83
2019-11-30 20:00:00 7.2 27 Oeste 43 Sudoeste 0 -- -- 82
2019-11-30 19:00:00 7.6 24 Sudoeste 38 Sudoeste 0 -- -- 80
2019-11-30 18:00:00 8.4 15 Sudoeste 29 Sudoeste 0 -- -- 79
2019-11-30 17:00:00 10.5 13 Sudoeste 28 Sudoeste 0 -- -- 69
2019-11-30 16:00:00 13.7 10 Sudoeste 27 Sudoeste 0 -- -- 55
2019-11-30 15:00:00 14.6 15 Sudoeste 29 Sudoeste 0 -- -- 50
2019-11-30 14:00:00 15 19 Sudoeste 31 Sudoeste 0 -- -- 46
2019-11-30 13:00:00 14 19 Sudoeste 28 Sudoeste 0 -- -- 53
2019-11-30 12:00:00 13.5 10 Sur 21 Sur 0 -- -- 54
2019-11-30 11:00:00 11.1 15 Sudeste 24 Sudeste 0 -- -- 76
2019-11-30 10:00:00 9.9 3 Sudeste 8 Nordeste 0 -- -- 79
2019-11-30 09:00:00 7.1 0 Calma 12 Sudoeste 0 -- -- 87
2019-11-30 08:00:00 3.6 6 Sudoeste 10 Oeste 0 -- -- 92
2019-11-30 07:00:00 4.8 11 Oeste 15 Oeste 0 -- -- 89
2019-11-30 06:00:00 5.5 12 Oeste 18 Oeste 0 -- -- 86
2019-11-30 05:00:00 3.6 4 Sudoeste 10 Sudoeste 0 -- -- 96
2019-11-30 04:00:00 4.8 5 Sudoeste 12 Sudoeste 0 -- -- 94
2019-11-30 03:00:00 5.3 4 Sudoeste 9 Oeste 0 -- -- 94
2019-11-30 02:00:00 5.3 6 Sudoeste 9 Sudoeste 0 -- -- 92
2019-11-30 01:00:00 6.8 8 Sudoeste 10 Sudoeste 0 -- -- 91
2019-11-30 00:00:00 5.8 0 Calma 8 Sudoeste 0 -- -- 91
2019-11-29 23:00:00 5.7 7 Sudoeste 10 Sudoeste 0 -- -- 90
2019-11-29 22:00:00 6.8 6 Sudoeste 8 Sudoeste 0 -- -- 88
2019-11-29 21:00:00 7.2 2 Norte 10 Sudoeste 0 -- -- 85
2019-11-29 20:00:00 6.8 5 Sudoeste 6 Sur 0 -- -- 86
2019-11-29 19:00:00 6.8 4 Sudoeste 9 Sudoeste 0 -- -- 84
2019-11-29 18:00:00 8.1 3 Oeste 17 Oeste 0 -- -- 78
2019-11-29 17:00:00 9.1 13 Oeste 18 Oeste 0 -- -- 72
2019-11-29 16:00:00 10 13 Oeste 19 Oeste 0 -- -- 66
2019-11-29 15:00:00 11.3 2 Sudeste 9 Sur 0 -- -- 58
2019-11-29 14:00:00 10.5 6 Este 35 Oeste 0 -- -- 63
2019-11-29 13:00:00 9.1 37 Oeste 63 Oeste 0 -- -- 70
2019-11-29 12:00:00 8.8 36 Oeste 62 Oeste 0 -- -- 73
2019-11-29 11:00:00 8.5 36 Oeste 57 Oeste 0 -- -- 78
2019-11-29 10:00:00 7.5 35 Oeste 56 Oeste 0 -- -- 85
2019-11-29 09:00:00 7.6 36 Oeste 53 Noroeste 0 -- -- 82
2019-11-29 08:00:00 7.2 36 Noroeste 58 Oeste 0 -- -- 85
2019-11-29 07:00:00 7.8 42 Oeste 58 Oeste 0 -- -- 83
2019-11-29 06:00:00 7.5 31 Oeste 61 Oeste 0 -- -- 85
2019-11-29 05:00:00 7.7 39 Oeste 53 Oeste 0 -- -- 84
2019-11-29 04:00:00 8 26 Noroeste 43 Oeste 0 -- -- 83
2019-11-29 03:00:00 7.7 28 Noroeste 44 Noroeste 0 -- -- 83
2019-11-29 02:00:00 7.2 24 Oeste 38 Noroeste 0 -- -- 82
2019-11-29 01:00:00 6.9 20 Oeste 34 Oeste 0 -- -- 80
2019-11-29 00:00:00 6.3 23 Noroeste 53 Sudoeste 0 -- -- 81
2019-11-28 23:00:00 5.4 27 Oeste 48 Oeste 0 -- -- 83
2019-11-28 22:00:00 5.3 26 Oeste 41 Oeste 0 -- -- 80
2019-11-28 21:00:00 5.5 16 Oeste 24 Oeste 0 -- -- 76
2019-11-28 20:00:00 5 10 Oeste 29 Oeste 0 -- -- 78
2019-11-28 19:00:00 6.2 20 Oeste 29 Oeste 0 -- -- 67
2019-11-28 18:00:00 7.7 15 Oeste 27 Oeste 0 -- -- 59
2019-11-28 17:00:00 8.6 2 Noroeste 14 Oeste 0 -- -- 60
2019-11-28 16:00:00 10 5 Sudoeste 23 Oeste 0 -- -- 51
2019-11-28 15:00:00 10.3 8 Sudeste 35 Oeste 0 -- -- 61
2019-11-28 14:00:00 10.4 19 Oeste 41 Oeste 0 -- -- 60
2019-11-28 13:00:00 10.2 23 Oeste 38 Oeste 0 -- -- 62
2019-11-28 12:00:00 9.8 14 Noroeste 40 Noroeste 0 -- -- 64
2019-11-28 11:00:00 8.4 23 Noroeste 47 Oeste 0 -- -- 68
2019-11-28 10:00:00 7.5 28 Noroeste 54 Noroeste 0 -- -- 71
2019-11-28 09:00:00 6.1 33 Oeste 58 Noroeste 0 -- -- 72
2019-11-28 08:00:00 5.7 35 Oeste 61 Noroeste 0 -- -- 68
2019-11-28 07:00:00 4.9 41 Oeste 69 Oeste 0 -- -- 76
2019-11-28 06:00:00 4.4 37 Oeste 55 Oeste 0 -- -- 79
2019-11-28 05:00:00 4.3 32 Oeste 53 Noroeste 0 -- -- 80
2019-11-28 04:00:00 4.2 27 Noroeste 41 Noroeste 0 -- -- 80
2019-11-28 03:00:00 4.2 13 Noroeste 32 Noroeste 0 -- -- 79
2019-11-28 02:00:00 4.3 18 Oeste 35 Noroeste 0 -- -- 80
2019-11-28 01:00:00 4.2 17 Oeste 36 Noroeste 0 -- -- 77
2019-11-28 00:00:00 4.3 12 Oeste 35 Noroeste 0 -- -- 76
2019-11-27 23:00:00 4.1 9 Oeste 22 Oeste 0 -- -- 80
2019-11-27 22:00:00 4.7 9 Oeste 25 Oeste 0 -- -- 74
2019-11-27 21:00:00 4.7 9 Oeste 41 Oeste 0 -- -- 72
2019-11-27 20:00:00 4.6 23 Oeste 45 Oeste 0 -- -- 76
2019-11-27 19:00:00 4.8 25 Oeste 42 Oeste 0 -- -- 76
2019-11-27 18:00:00 5.5 19 Oeste 28 Oeste 0 -- -- 73
2019-11-27 17:00:00 8.1 10 Oeste 19 Oeste 0 -- -- 64
2019-11-27 16:00:00 10.4 12 Sur 25 Sudoeste 0 -- -- 52
2019-11-27 15:00:00 11 12 Sudoeste 31 Sudoeste 0 -- -- 49
2019-11-27 14:00:00 9.7 20 Sudoeste 33 Oeste 0 -- -- 60
2019-11-27 06:00:00 7.1 17 Oeste 46 Sudoeste 0 -- -- 82
2019-11-27 05:00:00 7.2 27 Oeste 53 Oeste 0 -- -- 79
2019-11-27 04:00:00 7.4 29 Oeste 48 Sudoeste 0 -- -- 78
2019-11-27 03:00:00 7.7 23 Sudoeste 59 Sudoeste 0 -- -- 76
2019-11-27 02:00:00 8.5 25 Sudoeste 56 Sudoeste 0 -- -- 75
2019-11-27 01:00:00 8.9 20 Sudoeste 56 Sudoeste 0 -- -- 83
2019-11-27 00:00:00 8.6 33 Sudoeste 64 Sudoeste 0 -- -- 87
2019-11-26 23:00:00 8.5 22 Sudoeste 59 Sudoeste 0 -- -- 90
2019-11-26 22:00:00 9 31 Sudoeste 59 Oeste 0 -- -- 86
2019-11-26 21:00:00 8.2 31 Oeste 50 Sudoeste 0 -- -- 85
2019-11-26 20:00:00 8.5 27 Oeste 44 Sudoeste 0 -- -- 79
2019-11-26 19:00:00 9.2 12 Oeste 21 Oeste 0 -- -- 67
2019-11-26 18:00:00 8.9 4 Sudoeste 17 Sur 0 -- -- 80
2019-11-26 17:00:00 12.1 0 Calma 19 Sudoeste 0 -- -- 65
2019-11-26 16:00:00 14.7 12 Sudoeste 24 Sur 0 -- -- 52
2019-11-26 15:00:00 16.5 7 Sur 25 Sudeste 0 -- -- 47
2019-11-26 14:00:00 16.9 14 Sur 21 Sudeste 0 -- -- 51
2019-11-26 13:00:00 15.7 9 Noroeste 23 Noroeste 0 -- -- 55
2019-11-26 12:00:00 16 5 Este 22 Noroeste 0 -- -- 47
2019-11-26 11:00:00 13.5 13 Norte 21 Norte 0 -- -- 47
2019-11-26 10:00:00 10.8 3 Sur 5 Sudeste 0 -- -- 49
2019-11-26 09:00:00 6.4 3 Oeste 6 Oeste 0 -- -- 60
2019-11-26 08:00:00 6.4 2 Sur 17 Sudoeste 0 -- -- 58
2019-11-26 07:00:00 4.7 3 Oeste 9 Sudeste 0 -- -- 71
2019-11-26 06:00:00 4.2 2 Sudoeste 11 Oeste 0 -- -- 77
2019-11-26 05:00:00 3.4 2 Oeste 10 Oeste 0 -- -- 86
2019-11-26 04:00:00 3.2 0 Calma 13 Noroeste 0 -- -- 89
2019-11-26 03:00:00 3.3 9 Oeste 14 Sudoeste 0 -- -- 90
2019-11-26 02:00:00 3.3 6 Sudoeste 9 Oeste 0 -- -- 88
2019-11-26 01:00:00 4.1 4 Sudoeste 9 Sudoeste 0 -- -- 87
2019-11-26 00:00:00 5.6 6 Sudeste 27 Oeste 0 -- -- 85
2019-11-25 23:00:00 5.4 10 Oeste 19 Sudoeste 0 -- -- 86
2019-11-25 22:00:00 5.7 4 Oeste 21 Oeste 0 -- -- 84
2019-11-25 21:00:00 4.5 4 Oeste 14 Sudeste 0 -- -- 83
2019-11-25 20:00:00 6.4 3 Oeste 23 Noroeste 0 -- -- 75
2019-11-25 19:00:00 6.6 10 Este 25 Este 0 -- -- 74
2019-11-25 18:00:00 6.5 8 Sudoeste 58 Oeste 0 -- -- 75
2019-11-25 17:00:00 7.1 46 Oeste 72 Oeste 0 -- -- 72
2019-11-25 16:00:00 7.7 47 Oeste 67 Oeste 0 -- -- 75
2019-11-25 15:00:00 8.7 37 Oeste 53 Oeste 0 -- -- 71
2019-11-25 14:00:00 8.5 37 Noroeste 52 Noroeste 0 -- -- 68
2019-11-25 13:00:00 8.5 28 Noroeste 52 Noroeste 0 -- -- 69
2019-11-25 12:00:00 7.9 28 Oeste 62 Noroeste 0 -- -- 75
2019-11-25 11:00:00 7.2 43 Oeste 71 Oeste 0 -- -- 82
2019-11-25 10:00:00 7.3 38 Oeste 59 Oeste 0 -- -- 80
2019-11-25 09:00:00 7.2 24 Noroeste 59 Oeste 0 -- -- 80
2019-11-25 08:00:00 6.4 25 Oeste 43 Oeste 0 -- -- 85
2019-11-25 07:00:00 6.4 28 Noroeste 52 Oeste 0 -- -- 87
2019-11-25 06:00:00 6.2 24 Oeste 45 Oeste 0 -- -- 89
2019-11-25 05:00:00 6 21 Oeste 50 Oeste 0 -- -- 89
2019-11-25 04:00:00 6.7 27 Oeste 49 Oeste 0 -- -- 86
2019-11-25 03:00:00 6.3 26 Oeste 48 Oeste 0 -- -- 83
2019-11-25 02:00:00 5.7 30 Oeste 57 Oeste 0 -- -- 85
2019-11-25 01:00:00 4.9 26 Noroeste 60 Oeste 0 -- -- 86
2019-11-25 00:00:00 4.6 34 Oeste 64 Oeste 0 -- -- 85
2019-11-24 23:00:00 4.6 28 Oeste 49 Oeste 0 -- -- 78
2019-11-24 22:00:00 3.2 21 Noroeste 35 Oeste 0 -- -- 72
2019-11-24 21:00:00 1.8 8 Norte 24 Noroeste 0 -- -- 74
2019-11-24 20:00:00 1.1 3 Nordeste 14 Norte 0 -- -- 82
2019-11-24 19:00:00 1.2 5 Sur 11 Sur 0 -- -- 85
2019-11-24 18:00:00 1.7 3 Sudeste 19 Noroeste 0 -- -- 82
2019-11-24 17:00:00 2.8 16 Noroeste 38 Oeste 0 -- -- 77
2019-11-24 16:00:00 4.1 28 Oeste 46 Oeste 0 -- -- 73
2019-11-24 15:00:00 4.5 20 Noroeste 45 Oeste 0 -- -- 70
2019-11-24 14:00:00 3.6 17 Noroeste 47 Noroeste 0 -- -- 76
2019-11-24 13:00:00 3.5 18 Noroeste 40 Oeste 0 -- -- 76
2019-11-24 12:00:00 3.2 19 Noroeste 51 Noroeste 0 -- -- 74
2019-11-24 11:00:00 3.2 27 Noroeste 58 Oeste 0 -- -- 73
2019-11-24 10:00:00 1.9 29 Oeste 62 Oeste 0 -- -- 77
2019-11-24 09:00:00 0.9 38 Oeste 68 Oeste 0 -- -- 82
2019-11-24 08:00:00 0.3 32 Oeste 63 Oeste 0 -- -- 85
2019-11-24 07:00:00 0.2 42 Oeste 67 Oeste 0 -- -- 84
2019-11-24 06:00:00 0.5 46 Oeste 69 Oeste 0 -- -- 84
2019-11-24 05:00:00 0.5 47 Oeste 73 Oeste 0 -- -- 86
2019-11-24 04:00:00 0.6 48 Oeste 75 Oeste 0 -- -- 84
2019-11-24 03:00:00 1 57 Oeste 80 Oeste 0 -- -- 84
2019-11-24 02:00:00 1 49 Oeste 78 Oeste 0 -- -- 85
2019-11-24 01:00:00 1 50 Oeste 92 Oeste 0 -- -- 85
2019-11-24 00:00:00 1.3 58 Oeste 100 Oeste 0 -- -- 82
2019-11-23 23:00:00 1.3 56 Oeste 83 Oeste 0 -- -- 84
2019-11-23 22:00:00 1.4 46 Oeste 84 Oeste 0 -- -- 83
2019-11-23 21:00:00 1.6 66 Oeste 96 Oeste 0 -- -- 81
2019-11-23 20:00:00 1.7 55 Oeste 87 Oeste 0 -- -- 79
2019-11-23 19:00:00 1.7 51 Oeste 84 Oeste 0 -- -- 79
2019-11-23 18:00:00 1.9 40 Oeste 73 Oeste 0 -- -- 76
2019-11-23 17:00:00 2.2 42 Oeste 81 Oeste 0 -- -- 72
2019-11-23 16:00:00 2.4 48 Oeste 82 Oeste 0 -- -- 75
2019-11-23 15:00:00 2.5 51 Oeste 81 Oeste 0 -- -- 77
2019-11-23 14:00:00 1.5 58 Oeste 82 Noroeste 0 -- -- 85
2019-11-23 13:00:00 1.6 47 Oeste 86 Oeste 0 -- -- 89
2019-11-23 12:00:00 1.4 54 Oeste 90 Oeste 0.6 -- -- 90
2019-11-23 11:00:00 1.8 56 Oeste 85 Oeste 0 -- -- 87
2019-11-23 10:00:00 0.8 43 Oeste 66 Oeste 0 -- -- 90
2019-11-23 09:00:00 1.8 43 Oeste 79 Oeste 0 -- -- 84
2019-11-23 08:00:00 1.5 40 Oeste 71 Oeste 0 -- -- 85
2019-11-23 07:00:00 1.6 26 Oeste 58 Oeste 0.2 -- -- 86
2019-11-23 06:00:00 2.1 30 Oeste 46 Oeste 0 -- -- 88
2019-11-23 05:00:00 2.2 18 Oeste 40 Oeste 0 -- -- 88
2019-11-23 04:00:00 2.9 26 Sudoeste 52 Sudoeste 0 -- -- 89
2019-11-23 03:00:00 2.9 27 Sudoeste 45 Sudoeste 0 -- -- 86
2019-11-23 02:00:00 3.5 21 Sudoeste 42 Sudoeste 0 -- -- 87
2019-11-23 01:00:00 4 23 Sudoeste 52 Sudoeste 0 -- -- 86
2019-11-23 00:00:00 4.9 20 Sudoeste 45 Sur 0 -- -- 88
2019-11-22 23:00:00 5.5 23 Sur 39 Sudoeste 0 -- -- 87
2019-11-22 22:00:00 5.6 25 Sur 59 Sur 0 -- -- 90
2019-11-22 21:00:00 5 34 Sur 56 Sur 0.2 -- -- 100
2019-11-22 20:00:00 5.2 23 Sur 39 Sur 0.2 -- -- 100
2019-11-22 19:00:00 4.9 24 Sur 42 Sur 1.2 -- -- 100
2019-11-22 18:00:00 4.7 26 Sur 40 Sur 0.8 -- -- 100
2019-11-22 17:00:00 4.6 27 Sur 40 Sur 2.8 -- -- 100
2019-11-22 16:00:00 4.4 23 Sur 36 Sur 0.6 -- -- 100
2019-11-22 15:00:00 4 22 Sur 36 Sur 0.2 -- -- 100
2019-11-22 14:00:00 3.8 26 Sur 40 Sur 0 -- -- 100
2019-11-22 13:00:00 3.9 25 Sur 38 Sur 0 -- -- 99
2019-11-22 12:00:00 3.7 22 Sur 32 Sur 0 -- -- 97
2019-11-22 11:00:00 3.4 21 Sur 30 Sudoeste 0 -- -- 95
2019-11-22 10:00:00 3.1 15 Sur 26 Sur 0 -- -- 91
2019-11-22 09:00:00 1.9 5 Sur 17 Sur 0 -- -- 91
2019-11-22 08:00:00 1.3 5 Sudoeste 18 Sur 0 -- -- 91
2019-11-22 07:00:00 0.5 8 Sudoeste 10 Sudoeste 0 -- -- 91
2019-11-22 06:00:00 0.4 0 Calma 13 Oeste 0 -- -- 91
2019-11-22 05:00:00 0.2 6 Sudoeste 16 Oeste 0 -- -- 91
2019-11-22 04:00:00 0.3 5 Oeste 10 Oeste 0 -- -- 90
2019-11-22 03:00:00 0.2 4 Sudoeste 8 Oeste 0 -- -- 91
2019-11-22 02:00:00 0.4 4 Oeste 12 Oeste 0 -- -- 93
2019-11-22 01:00:00 1 3 Oeste 16 Oeste 0 -- -- 90
2019-11-22 00:00:00 2.3 10 Oeste 26 Oeste 0 -- -- 90
2019-11-21 23:00:00 1.4 8 Sudoeste 13 Sudoeste 0 -- -- 91
2019-11-21 22:00:00 2.3 10 Sudoeste 15 Sudoeste 0 -- -- 87
2019-11-21 21:00:00 2.5 12 Sudoeste 17 Sudoeste 0 -- -- 84
2019-11-21 20:00:00 3.1 8 Sudoeste 13 Sudoeste 0 -- -- 83
2019-11-21 19:00:00 3.1 5 Sudeste 12 Sur 0 -- -- 83
2019-11-21 18:00:00 3.2 6 Sudoeste 13 Sudoeste 0 -- -- 80
2019-11-21 17:00:00 4.5 9 Sudoeste 15 Sur 0 -- -- 74
2019-11-21 16:00:00 5.1 8 Sur 18 Sudoeste 0 -- -- 73
2019-11-21 15:00:00 5.4 5 Sur 18 Sudoeste 0 -- -- 71
2019-11-21 14:00:00 5.3 12 Sudoeste 20 Sudoeste 0 -- -- 70
2019-11-21 13:00:00 6.7 12 Oeste 29 Sudoeste 0 -- -- 63
2019-11-21 12:00:00 5.8 11 Sudoeste 28 Sudoeste 0 -- -- 66
2019-11-21 11:00:00 4.4 21 Oeste 39 Oeste 0 -- -- 71
2019-11-21 10:00:00 2.8 20 Oeste 36 Oeste 0 -- -- 78
2019-11-21 09:00:00 1.9 11 Oeste 32 Oeste 0 -- -- 79
2019-11-21 08:00:00 -- -- -- -- -- -- -- -- --
2019-11-21 07:00:00 -- -- -- -- -- -- -- -- --
2019-11-21 06:00:00 -- -- -- -- -- -- -- -- --
2019-11-21 05:00:00 -- -- -- -- -- -- -- -- --
2019-11-21 04:00:00 -- -- -- -- -- -- -- -- --
2019-11-21 03:00:00 -- -- -- -- -- -- -- -- --
2019-11-21 02:00:00 -- -- -- -- -- -- -- -- --
2019-11-21 01:00:00 -- -- -- -- -- -- -- -- --
2019-11-21 00:00:00 -- -- -- -- -- -- -- -- --
2019-11-20 23:00:00 -- -- -- -- -- -- -- -- --
2019-11-20 22:00:00 -- -- -- -- -- -- -- -- --
2019-11-20 21:00:00 -- -- -- -- -- -- -- -- --
2019-11-20 20:00:00 -- -- -- -- -- -- -- -- --
2019-11-20 19:00:00 1 11 Sur 19 Sur 0 -- -- 96
2019-11-20 18:00:00 1.6 8 Sur 14 Sur 0 -- -- 86
2019-11-20 17:00:00 3.8 10 Sur 24 Sur 0 -- -- 66
2019-11-20 16:00:00 5.8 14 Sur 27 Sur 0 -- -- 49
2019-11-20 15:00:00 6 12 Sudeste 26 Sudeste 0 -- -- 50
2019-11-20 14:00:00 5.9 12 Sudeste 24 Sudeste 0 -- -- 55
2019-11-20 13:00:00 5.2 13 Sudeste 26 Sur 0 -- -- 54
2019-11-20 12:00:00 4.2 12 Sur 17 Sur 0 -- -- 52
2019-11-20 11:00:00 3.7 10 Sur 18 Sur 0 -- -- 62
2019-11-20 10:00:00 1.1 5 Sudeste 11 Sur 0 -- -- 78
2019-11-20 09:00:00 -0.4 2 Sur 5 Sur 0 -- -- 82
2019-11-20 08:00:00 -1.3 2 Sur 8 Sur 0 -- -- 81
2019-11-20 07:00:00 -1.7 0 Calma 7 Sudoeste 0 -- -- 82
2019-11-20 06:00:00 -1.9 5 Sudoeste 8 Sudoeste 0 -- -- 81
2019-11-20 05:00:00 -1.3 0 Calma 8 Sudoeste 0 -- -- 77
2019-11-20 04:00:00 -1 6 Sur 9 Sur 0 -- -- 71
2019-11-20 03:00:00 -2.2 4 Sudoeste 7 Oeste 0 -- -- 75
2019-11-20 02:00:00 -2.1 3 Sudoeste 8 Noroeste 0 -- -- 74
2019-11-20 01:00:00 -2 3 Oeste 13 Oeste 0 -- -- 81
2019-11-20 00:00:00 -1.8 4 Sur 8 Sur 0 -- -- 83
2019-11-19 23:00:00 -1.2 3 Sur 8 Oeste 0 -- -- 77
2019-11-19 22:00:00 -1.1 4 Noroeste 21 Oeste 0 -- -- 72
2019-11-19 21:00:00 -0.9 15 Oeste 21 Oeste 0 -- -- 79
2019-11-19 20:00:00 -0.8 15 Oeste 20 Oeste 0 -- -- 80
2019-11-19 19:00:00 -0.7 14 Oeste 21 Oeste 0 -- -- 77
2019-11-19 18:00:00 0.3 10 Oeste 15 Oeste 0 -- -- 59
2019-11-19 17:00:00 3.1 6 Noroeste 22 Oeste 0 -- -- 49
2019-11-19 16:00:00 4.1 12 Oeste 39 Oeste 0 -- -- 50
2019-11-19 15:00:00 3.5 36 Oeste 48 Oeste 0 -- -- 52
2019-11-19 14:00:00 3.3 17 Noroeste 29 Noroeste 0 -- -- 56
2019-11-19 13:00:00 3.1 13 Oeste 25 Oeste 0 -- -- 59
2019-11-19 12:00:00 4.1 11 Norte 25 Oeste 0 -- -- 61
2019-11-19 11:00:00 2.2 13 Oeste 35 Oeste 0 -- -- 62
2019-11-19 10:00:00 0.6 22 Oeste 33 Oeste 0 -- -- 70
2019-11-19 09:00:00 -1.1 19 Oeste 34 Oeste 0 -- -- 80
2019-11-19 08:00:00 -2.4 22 Oeste 47 Oeste 0 -- -- 83
2019-11-19 07:00:00 -1.9 35 Oeste 61 Noroeste 0 -- -- 78
2019-11-19 06:00:00 -2 47 Oeste 64 Oeste 0 -- -- 79
2019-11-19 05:00:00 -1.9 37 Oeste 57 Oeste 0 -- -- 75
2019-11-19 04:00:00 -1.2 46 Oeste 57 Oeste 0 -- -- 65
2019-11-19 03:00:00 -2.2 32 Oeste 69 Noroeste 0 -- -- 78
2019-11-19 02:00:00 -2.3 46 Oeste 73 Noroeste 0 -- -- 81
2019-11-19 01:00:00 -2.1 53 Oeste 67 Noroeste 0 -- -- 77
2019-11-19 00:00:00 -2.4 50 Oeste 68 Oeste 0 -- -- 79
2019-11-18 23:00:00 -2.2 54 Oeste 73 Oeste 0 -- -- 80
2019-11-18 22:00:00 -1.7 41 Oeste 66 Oeste 0 -- -- 80
2019-11-18 21:00:00 -1.5 41 Oeste 64 Noroeste 0 -- -- 80
2019-11-18 20:00:00 -1.5 36 Noroeste 56 Noroeste 0 -- -- 80
2019-11-18 19:00:00 -1.2 37 Noroeste 61 Noroeste 0 -- -- 79
2019-11-18 18:00:00 -0.7 19 Noroeste 50 Oeste 0 -- -- 81
2019-11-18 17:00:00 -0.5 35 Oeste 50 Oeste 0 -- -- 82
2019-11-18 16:00:00 -0.1 31 Oeste 50 Noroeste 0 -- -- 81
2019-11-18 15:00:00 1.7 28 Noroeste 70 Oeste 0 -- -- 73
2019-11-18 14:00:00 1.2 40 Noroeste 68 Oeste 0 -- -- 74
2019-11-18 13:00:00 0.4 51 Oeste 72 Oeste 0 -- -- 74
2019-11-18 12:00:00 0 43 Oeste 73 Oeste 0 -- -- 81
2019-11-18 11:00:00 0.2 38 Noroeste 67 Oeste 0 -- -- 81
2019-11-18 10:00:00 -0.4 53 Oeste 73 Oeste 0 -- -- 81
2019-11-18 09:00:00 -0.9 48 Oeste 68 Oeste 0 -- -- 88
2019-11-18 08:00:00 -0.4 45 Oeste 64 Noroeste 0 -- -- 91
2019-11-18 07:00:00 -0.1 30 Noroeste 63 Oeste 0 -- -- 91
2019-11-18 06:00:00 0 40 Oeste 54 Oeste 0 -- -- 91
2019-11-18 05:00:00 -0.2 25 Oeste 50 Oeste 0 -- -- 90
2019-11-18 04:00:00 0.3 38 Oeste 50 Oeste 0 -- -- 87
2019-11-18 03:00:00 0.4 16 Noroeste 34 Oeste 0 -- -- 85
2019-11-18 02:00:00 0.7 12 Noroeste 36 Oeste 0.2 -- -- 87
2019-11-18 01:00:00 1.5 12 Oeste 25 Oeste 0 -- -- 87
2019-11-18 00:00:00 1.3 11 Oeste 19 Oeste 0.2 -- -- 94
2019-11-17 23:00:00 2.2 5 Noroeste 18 Oeste 0 -- -- 91
2019-11-17 22:00:00 2.4 5 Sudoeste 16 Oeste 0 -- -- 89
2019-11-17 21:00:00 2.3 3 Norte 18 Sudoeste 0 -- -- 92
2019-11-17 20:00:00 2.5 7 Oeste 23 Oeste 0 -- -- 89
2019-11-17 19:00:00 2.6 11 Oeste 34 Noroeste 0 -- -- 89
2019-11-17 18:00:00 2.7 12 Sudoeste 28 Sudoeste 0 -- -- 89
2019-11-17 17:00:00 3 7 Sudoeste 31 Sudoeste 0.6 -- -- 90
2019-11-17 16:00:00 5.3 22 Sudoeste 38 Sudoeste 0 -- -- 75
2019-11-17 15:00:00 5.6 26 Sudoeste 41 Sudoeste 0 -- -- 70
2019-11-17 14:00:00 6.5 19 Oeste 51 Oeste 0 -- -- 64
2019-11-17 13:00:00 5.4 34 Oeste 56 Oeste 0 -- -- 65
2019-11-17 12:00:00 5 17 Oeste 43 Oeste 0 -- -- 66
2019-11-17 11:00:00 2.8 21 Oeste 45 Oeste 0 -- -- 72
2019-11-17 10:00:00 1.3 27 Oeste 52 Oeste 0 -- -- 76
2019-11-17 09:00:00 -0.3 31 Oeste 55 Oeste 0 -- -- 81
2019-11-17 08:00:00 -1.2 35 Oeste 62 Oeste 0 -- -- 80
2019-11-17 07:00:00 -1.6 28 Oeste 52 Oeste 0 -- -- 79
2019-11-17 06:00:00 -1.7 30 Oeste 57 Oeste 0 -- -- 80
2019-11-17 05:00:00 -2 30 Oeste 58 Oeste 0 -- -- 82
2019-11-17 04:00:00 -1.9 28 Oeste 57 Oeste 0 -- -- 79
2019-11-17 03:00:00 -1.6 31 Oeste 57 Oeste 0 -- -- 77
2019-11-17 02:00:00 -1.6 33 Oeste 62 Oeste 0 -- -- 81
2019-11-17 01:00:00 -1.2 39 Oeste 69 Oeste 0 -- -- 79
2019-11-17 00:00:00 -1.1 46 Oeste 68 Oeste 0 -- -- 80
2019-11-16 23:00:00 -0.9 45 Oeste 72 Oeste 0 -- -- 77
2019-11-16 22:00:00 -0.6 52 Oeste 72 Oeste 0 -- -- 75
2019-11-16 21:00:00 -0.4 48 Oeste 71 Oeste 0 -- -- 73
2019-11-16 20:00:00 -0.6 41 Oeste 68 Noroeste 0 -- -- 76
2019-11-16 19:00:00 -0.6 33 Oeste 57 Oeste 0 -- -- 82
2019-11-16 18:00:00 -0.4 21 Oeste 36 Oeste 0 -- -- 74
2019-11-16 17:00:00 1.1 8 Oeste 35 Noroeste 0 -- -- 64
2019-11-16 16:00:00 2.1 26 Oeste 39 Oeste 0 -- -- 56
2019-11-16 15:00:00 3 10 Oeste 26 Oeste 0 -- -- 52
2019-11-16 14:00:00 2.8 15 Oeste 45 Oeste 0 -- -- 52
2019-11-16 13:00:00 2.2 24 Oeste 41 Noroeste 0 -- -- 49
2019-11-16 12:00:00 1.2 28 Oeste 42 Oeste 0 -- -- 54
2019-11-16 11:00:00 0.8 14 Noroeste 49 Oeste 0 -- -- 57
2019-11-16 10:00:00 -1.1 35 Oeste 49 Oeste 0 -- -- 75
2019-11-16 09:00:00 -2.4 26 Oeste 50 Oeste 0 -- -- 84
2019-11-16 08:00:00 -2.9 25 Noroeste 49 Oeste 0 -- -- 87
2019-11-16 07:00:00 -2.8 34 Oeste 48 Noroeste 0 -- -- 87
2019-11-16 06:00:00 -2.6 40 Oeste 56 Oeste 0 -- -- 88
2019-11-16 05:00:00 -2.4 31 Oeste 57 Oeste 0 -- -- 88
2019-11-16 04:00:00 -2.2 40 Oeste 57 Noroeste 0 -- -- 88
2019-11-16 03:00:00 -2 23 Noroeste 40 Noroeste 0 -- -- 85
2019-11-16 02:00:00 -1.9 23 Noroeste 43 Oeste 0 -- -- 83
2019-11-16 01:00:00 -1.5 27 Noroeste 51 Oeste 0 -- -- 84
2019-11-16 00:00:00 -1.2 34 Oeste 54 Oeste 0 -- -- 83
2019-11-15 23:00:00 -0.9 39 Oeste 57 Oeste 0 -- -- 81
2019-11-15 22:00:00 -0.9 39 Oeste 57 Oeste 0 -- -- 82
2019-11-15 21:00:00 -0.6 40 Oeste 55 Oeste 0 -- -- 83
2019-11-15 20:00:00 -0.6 31 Oeste 45 Noroeste 0 -- -- 82
2019-11-15 19:00:00 -0.4 23 Oeste 36 Oeste 0 -- -- 80
2019-11-15 18:00:00 -0.4 17 Noroeste 28 Oeste 0 -- -- 79
2019-11-15 17:00:00 0.2 17 Oeste 36 Oeste 0 -- -- 78
2019-11-15 16:00:00 0.6 22 Oeste 42 Oeste 0 -- -- 76
2019-11-15 15:00:00 1.9 16 Oeste 45 Noroeste 0 -- -- 72
2019-11-15 14:00:00 1.1 22 Noroeste 46 Oeste 0 -- -- 76
2019-11-15 13:00:00 0.5 28 Oeste 60 Oeste 0 -- -- 77
2019-11-15 12:00:00 -0.1 35 Oeste 65 Oeste 0 -- -- 82
2019-11-15 11:00:00 -1.3 12 Noroeste 27 Oeste 0 -- -- 85
2019-11-15 10:00:00 -1.7 10 Noroeste 49 Oeste 0 -- -- 83
2019-11-15 09:00:00 -2.7 23 Oeste 54 Oeste 0 -- -- 86
2019-11-15 08:00:00 -3.3 30 Noroeste 55 Oeste 0 -- -- 89
2019-11-15 07:00:00 -2.7 22 Noroeste 42 Noroeste 0 -- -- 88
2019-11-15 06:00:00 -2.3 25 Noroeste 40 Oeste 0 -- -- 85
2019-11-15 05:00:00 -2.1 19 Noroeste 55 Oeste 0 -- -- 85
2019-11-15 04:00:00 -2.1 46 Oeste 67 Noroeste 0 -- -- 80
2019-11-15 03:00:00 -2.3 29 Oeste 54 Oeste 0 -- -- 87
2019-11-15 02:00:00 -2.6 25 Noroeste 50 Noroeste 0 -- -- 90
2019-11-15 01:00:00 -1.9 21 Oeste 33 Noroeste 0.2 -- -- 87
2019-11-15 00:00:00 -2.4 4 Oeste 8 Noroeste 0 -- -- 89